sensor_id;sensor_type;location;lat;lon;timestamp;P1;durP1;ratioP1;P2;durP2;ratioP2
16662;SDS011;8445;51.270;9.434;2022-08-05T00:02:04;7.82;;;3.85;;
16662;SDS011;8445;51.270;9.434;2022-08-05T00:04:30;5.43;;;3.72;;
16662;SDS011;8445;51.270;9.434;2022-08-05T00:06:56;5.03;;;3.03;;
16662;SDS011;8445;51.270;9.434;2022-08-05T00:09:22;5.03;;;3.45;;
16662;SDS011;8445;51.270;9.434;2022-08-05T00:11:48;10.10;;;3.83;;
16662;SDS011;8445;51.270;9.434;2022-08-05T00:14:14;5.07;;;3.65;;
16662;SDS011;8445;51.270;9.434;2022-08-05T00:16:45;6.57;;;4.50;;
16662;SDS011;8445;51.270;9.434;2022-08-05T00:19:11;5.95;;;4.00;;
16662;SDS011;8445;51.270;9.434;2022-08-05T00:21:37;5.78;;;3.70;;
16662;SDS011;8445;51.270;9.434;2022-08-05T00:24:03;6.78;;;3.53;;
16662;SDS011;8445;51.270;9.434;2022-08-05T00:26:30;11.75;;;3.63;;
16662;SDS011;8445;51.270;9.434;2022-08-05T00:28:55;6.22;;;3.78;;
16662;SDS011;8445;51.270;9.434;2022-08-05T00:31:21;3.70;;;3.40;;
16662;SDS011;8445;51.270;9.434;2022-08-05T00:33:47;9.25;;;3.55;;
16662;SDS011;8445;51.270;9.434;2022-08-05T00:36:13;5.85;;;3.65;;
16662;SDS011;8445;51.270;9.434;2022-08-05T00:38:39;6.40;;;3.53;;
16662;SDS011;8445;51.270;9.434;2022-08-05T00:41:05;10.10;;;3.65;;
16662;SDS011;8445;51.270;9.434;2022-08-05T00:43:32;6.82;;;3.80;;
16662;SDS011;8445;51.270;9.434;2022-08-05T00:46:00;6.20;;;3.35;;
16662;SDS011;8445;51.270;9.434;2022-08-05T00:48:27;5.18;;;3.60;;
16662;SDS011;8445;51.270;9.434;2022-08-05T00:50:53;8.10;;;3.50;;
16662;SDS011;8445;51.270;9.434;2022-08-05T00:53:19;7.68;;;3.60;;
16662;SDS011;8445;51.270;9.434;2022-08-05T00:55:48;4.93;;;3.33;;
16662;SDS011;8445;51.270;9.434;2022-08-05T00:58:14;5.68;;;3.00;;
16662;SDS011;8445;51.270;9.434;2022-08-05T01:00:41;7.32;;;3.40;;
16662;SDS011;8445;51.270;9.434;2022-08-05T01:03:08;7.90;;;3.75;;
16662;SDS011;8445;51.270;9.434;2022-08-05T01:05:35;4.90;;;3.60;;
16662;SDS011;8445;51.270;9.434;2022-08-05T01:08:02;7.82;;;3.80;;
16662;SDS011;8445;51.270;9.434;2022-08-05T01:10:30;5.47;;;3.35;;
16662;SDS011;8445;51.270;9.434;2022-08-05T01:13:44;5.07;;;3.80;;
16662;SDS011;8445;51.270;9.434;2022-08-05T01:16:32;4.38;;;3.28;;
16662;SDS011;8445;51.270;9.434;2022-08-05T01:19:17;4.35;;;3.45;;
16662;SDS011;8445;51.270;9.434;2022-08-05T01:30:39;6.63;;;3.70;;
16662;SDS011;8445;51.270;9.434;2022-08-05T01:33:16;6.88;;;3.85;;
16662;SDS011;8445;51.270;9.434;2022-08-05T01:35:47;13.68;;;4.20;;
16662;SDS011;8445;51.270;9.434;2022-08-05T01:38:15;3.97;;;3.65;;
16662;SDS011;8445;51.270;9.434;2022-08-05T01:40:43;7.88;;;3.60;;
16662;SDS011;8445;51.270;9.434;2022-08-05T01:43:11;4.93;;;3.40;;
16662;SDS011;8445;51.270;9.434;2022-08-05T01:45:40;8.85;;;4.00;;
16662;SDS011;8445;51.270;9.434;2022-08-05T01:48:06;7.63;;;4.00;;
16662;SDS011;8445;51.270;9.434;2022-08-05T01:50:37;8.80;;;3.90;;
16662;SDS011;8445;51.270;9.434;2022-08-05T01:53:13;5.55;;;3.40;;
16662;SDS011;8445;51.270;9.434;2022-08-05T01:55:45;12.40;;;4.22;;
16662;SDS011;8445;51.270;9.434;2022-08-05T01:58:14;8.73;;;4.35;;
16662;SDS011;8445;51.270;9.434;2022-08-05T02:00:42;9.27;;;4.95;;
16662;SDS011;8445;51.270;9.434;2022-08-05T02:06:01;9.07;;;5.82;;
16662;SDS011;8445;51.270;9.434;2022-08-05T02:08:32;8.98;;;6.80;;
16662;SDS011;8445;51.270;9.434;2022-08-05T02:11:01;10.07;;;6.88;;
16662;SDS011;8445;51.270;9.434;2022-08-05T02:13:40;9.38;;;6.57;;
16662;SDS011;8445;51.270;9.434;2022-08-05T02:16:18;12.73;;;7.00;;
16662;SDS011;8445;51.270;9.434;2022-08-05T02:18:55;8.73;;;6.30;;
16662;SDS011;8445;51.270;9.434;2022-08-05T02:21:32;10.13;;;6.93;;
16662;SDS011;8445;51.270;9.434;2022-08-05T02:24:06;15.70;;;7.95;;
16662;SDS011;8445;51.270;9.434;2022-08-05T02:26:40;12.80;;;8.50;;
16662;SDS011;8445;51.270;9.434;2022-08-05T02:29:14;17.95;;;9.52;;
16662;SDS011;8445;51.270;9.434;2022-08-05T02:31:46;11.60;;;9.15;;
16662;SDS011;8445;51.270;9.434;2022-08-05T02:34:15;12.95;;;9.45;;
16662;SDS011;8445;51.270;9.434;2022-08-05T02:36:53;11.60;;;9.07;;
16662;SDS011;8445;51.270;9.434;2022-08-05T02:39:25;15.98;;;8.88;;
16662;SDS011;8445;51.270;9.434;2022-08-05T02:41:58;13.48;;;9.88;;
16662;SDS011;8445;51.270;9.434;2022-08-05T02:44:27;12.80;;;9.13;;
16662;SDS011;8445;51.270;9.434;2022-08-05T02:46:56;12.35;;;7.65;;
16662;SDS011;8445;51.270;9.434;2022-08-05T02:49:25;12.15;;;8.20;;
16662;SDS011;8445;51.270;9.434;2022-08-05T02:51:56;11.02;;;7.40;;
16662;SDS011;8445;51.270;9.434;2022-08-05T02:54:23;9.07;;;6.07;;
16662;SDS011;8445;51.270;9.434;2022-08-05T02:56:51;8.88;;;5.95;;
16662;SDS011;8445;51.270;9.434;2022-08-05T02:59:18;8.60;;;6.00;;
16662;SDS011;8445;51.270;9.434;2022-08-05T03:01:47;10.85;;;7.35;;
16662;SDS011;8445;51.270;9.434;2022-08-05T03:04:16;13.15;;;7.32;;
16662;SDS011;8445;51.270;9.434;2022-08-05T03:06:44;13.88;;;8.60;;
16662;SDS011;8445;51.270;9.434;2022-08-05T03:09:11;10.32;;;8.82;;
16662;SDS011;8445;51.270;9.434;2022-08-05T03:11:40;11.48;;;9.10;;
16662;SDS011;8445;51.270;9.434;2022-08-05T03:14:08;11.93;;;7.82;;
16662;SDS011;8445;51.270;9.434;2022-08-05T03:16:34;14.32;;;9.35;;
16662;SDS011;8445;51.270;9.434;2022-08-05T03:19:01;15.85;;;10.15;;
16662;SDS011;8445;51.270;9.434;2022-08-05T03:21:29;17.85;;;10.55;;
16662;SDS011;8445;51.270;9.434;2022-08-05T03:23:55;13.85;;;10.05;;
16662;SDS011;8445;51.270;9.434;2022-08-05T03:26:22;12.93;;;10.05;;
16662;SDS011;8445;51.270;9.434;2022-08-05T03:28:48;15.90;;;11.15;;
16662;SDS011;8445;51.270;9.434;2022-08-05T03:31:14;18.95;;;11.32;;
16662;SDS011;8445;51.270;9.434;2022-08-05T03:33:40;18.90;;;11.43;;
16662;SDS011;8445;51.270;9.434;2022-08-05T03:36:06;16.33;;;11.60;;
16662;SDS011;8445;51.270;9.434;2022-08-05T03:38:35;18.00;;;11.88;;
16662;SDS011;8445;51.270;9.434;2022-08-05T03:41:06;18.00;;;10.65;;
16662;SDS011;8445;51.270;9.434;2022-08-05T03:43:32;17.45;;;11.68;;
16662;SDS011;8445;51.270;9.434;2022-08-05T03:45:58;13.63;;;8.70;;
16662;SDS011;8445;51.270;9.434;2022-08-05T03:48:27;10.70;;;7.20;;
16662;SDS011;8445;51.270;9.434;2022-08-05T03:53:47;9.80;;;6.57;;
16662;SDS011;8445;51.270;9.434;2022-08-05T03:59:02;8.57;;;6.75;;
16662;SDS011;8445;51.270;9.434;2022-08-05T04:01:35;11.15;;;6.40;;
16662;SDS011;8445;51.270;9.434;2022-08-05T04:04:06;6.93;;;6.22;;
16662;SDS011;8445;51.270;9.434;2022-08-05T04:06:36;7.28;;;6.55;;
16662;SDS011;8445;51.270;9.434;2022-08-05T04:09:03;10.75;;;6.22;;
16662;SDS011;8445;51.270;9.434;2022-08-05T04:11:30;8.25;;;5.15;;
16662;SDS011;8445;51.270;9.434;2022-08-05T04:13:58;10.25;;;6.55;;
16662;SDS011;8445;51.270;9.434;2022-08-05T04:16:24;9.93;;;6.13;;
16662;SDS011;8445;51.270;9.434;2022-08-05T04:18:51;11.25;;;7.07;;
16662;SDS011;8445;51.270;9.434;2022-08-05T04:21:18;10.30;;;7.70;;
16662;SDS011;8445;51.270;9.434;2022-08-05T04:23:44;13.45;;;7.10;;
16662;SDS011;8445;51.270;9.434;2022-08-05T04:26:10;10.90;;;7.32;;
16662;SDS011;8445;51.270;9.434;2022-08-05T04:28:40;12.73;;;8.30;;
16662;SDS011;8445;51.270;9.434;2022-08-05T04:31:05;15.50;;;8.95;;
16662;SDS011;8445;51.270;9.434;2022-08-05T04:33:31;11.00;;;8.20;;
16662;SDS011;8445;51.270;9.434;2022-08-05T04:35:58;13.98;;;8.98;;
16662;SDS011;8445;51.270;9.434;2022-08-05T04:38:23;14.05;;;9.57;;
16662;SDS011;8445;51.270;9.434;2022-08-05T04:40:49;14.32;;;10.30;;
16662;SDS011;8445;51.270;9.434;2022-08-05T04:43:15;14.32;;;10.30;;
16662;SDS011;8445;51.270;9.434;2022-08-05T04:45:41;11.77;;;9.40;;
16662;SDS011;8445;51.270;9.434;2022-08-05T04:48:10;14.55;;;9.77;;
16662;SDS011;8445;51.270;9.434;2022-08-05T04:53:10;12.77;;;8.57;;
16662;SDS011;8445;51.270;9.434;2022-08-05T04:55:39;11.90;;;8.75;;
16662;SDS011;8445;51.270;9.434;2022-08-05T04:58:07;14.00;;;8.85;;
16662;SDS011;8445;51.270;9.434;2022-08-05T05:00:37;13.52;;;8.95;;
16662;SDS011;8445;51.270;9.434;2022-08-05T05:03:04;13.30;;;8.57;;
16662;SDS011;8445;51.270;9.434;2022-08-05T05:05:31;11.00;;;8.80;;
16662;SDS011;8445;51.270;9.434;2022-08-05T05:07:59;17.10;;;9.90;;
16662;SDS011;8445;51.270;9.434;2022-08-05T05:10:31;14.88;;;9.80;;
16662;SDS011;8445;51.270;9.434;2022-08-05T05:13:06;10.45;;;8.90;;
16662;SDS011;8445;51.270;9.434;2022-08-05T05:15:37;11.63;;;10.45;;
16662;SDS011;8445;51.270;9.434;2022-08-05T05:18:04;13.50;;;9.75;;
16662;SDS011;8445;51.270;9.434;2022-08-05T05:20:31;12.65;;;10.48;;
16662;SDS011;8445;51.270;9.434;2022-08-05T05:22:58;12.00;;;10.15;;
16662;SDS011;8445;51.270;9.434;2022-08-05T05:25:26;15.73;;;10.52;;
16662;SDS011;8445;51.270;9.434;2022-08-05T05:27:52;14.45;;;10.73;;
16662;SDS011;8445;51.270;9.434;2022-08-05T05:30:19;12.95;;;10.80;;
16662;SDS011;8445;51.270;9.434;2022-08-05T05:32:46;12.02;;;10.75;;
16662;SDS011;8445;51.270;9.434;2022-08-05T05:35:12;14.43;;;10.68;;
16662;SDS011;8445;51.270;9.434;2022-08-05T05:40:32;12.52;;;9.75;;
16662;SDS011;8445;51.270;9.434;2022-08-05T05:42:58;10.40;;;8.88;;
16662;SDS011;8445;51.270;9.434;2022-08-05T05:45:24;11.18;;;8.48;;
16662;SDS011;8445;51.270;9.434;2022-08-05T05:47:51;8.88;;;7.88;;
16662;SDS011;8445;51.270;9.434;2022-08-05T05:50:17;14.35;;;8.70;;
16662;SDS011;8445;51.270;9.434;2022-08-05T05:52:44;10.98;;;8.20;;
16662;SDS011;8445;51.270;9.434;2022-08-05T05:55:12;12.77;;;9.15;;
16662;SDS011;8445;51.270;9.434;2022-08-05T05:57:42;13.32;;;8.40;;
16662;SDS011;8445;51.270;9.434;2022-08-05T06:00:20;13.77;;;8.65;;
16662;SDS011;8445;51.270;9.434;2022-08-05T06:02:47;10.77;;;8.85;;
16662;SDS011;8445;51.270;9.434;2022-08-05T06:05:13;14.23;;;8.95;;
16662;SDS011;8445;51.270;9.434;2022-08-05T06:07:40;10.48;;;9.00;;
16662;SDS011;8445;51.270;9.434;2022-08-05T06:10:07;13.93;;;9.20;;
16662;SDS011;8445;51.270;9.434;2022-08-05T06:12:34;15.07;;;8.63;;
16662;SDS011;8445;51.270;9.434;2022-08-05T06:15:03;10.20;;;8.77;;
16662;SDS011;8445;51.270;9.434;2022-08-05T06:17:31;10.77;;;9.50;;
16662;SDS011;8445;51.270;9.434;2022-08-05T06:19:57;17.40;;;9.75;;
16662;SDS011;8445;51.270;9.434;2022-08-05T06:22:24;13.27;;;9.57;;
16662;SDS011;8445;51.270;9.434;2022-08-05T06:24:53;13.25;;;8.25;;
16662;SDS011;8445;51.270;9.434;2022-08-05T06:27:20;16.52;;;9.43;;
16662;SDS011;8445;51.270;9.434;2022-08-05T06:29:46;13.07;;;9.05;;
16662;SDS011;8445;51.270;9.434;2022-08-05T06:32:12;14.10;;;9.00;;
16662;SDS011;8445;51.270;9.434;2022-08-05T06:34:38;11.98;;;7.82;;
16662;SDS011;8445;51.270;9.434;2022-08-05T06:37:04;12.20;;;8.32;;
16662;SDS011;8445;51.270;9.434;2022-08-05T06:39:31;9.68;;;7.20;;
16662;SDS011;8445;51.270;9.434;2022-08-05T06:41:57;11.15;;;7.35;;
16662;SDS011;8445;51.270;9.434;2022-08-05T06:44:27;10.52;;;7.28;;
16662;SDS011;8445;51.270;9.434;2022-08-05T06:46:55;8.68;;;6.32;;
16662;SDS011;8445;51.270;9.434;2022-08-05T06:49:26;7.30;;;6.18;;
16662;SDS011;8445;51.270;9.434;2022-08-05T06:51:55;13.65;;;6.57;;
16662;SDS011;8445;51.270;9.434;2022-08-05T06:54:26;9.27;;;5.75;;
16662;SDS011;8445;51.270;9.434;2022-08-05T06:56:57;8.80;;;6.32;;
16662;SDS011;8445;51.270;9.434;2022-08-05T06:59:26;9.77;;;6.72;;
16662;SDS011;8445;51.270;9.434;2022-08-05T07:01:57;9.77;;;5.82;;
16662;SDS011;8445;51.270;9.434;2022-08-05T07:04:22;8.90;;;6.00;;
16662;SDS011;8445;51.270;9.434;2022-08-05T07:06:48;8.43;;;5.97;;
16662;SDS011;8445;51.270;9.434;2022-08-05T07:09:14;6.88;;;6.20;;
16662;SDS011;8445;51.270;9.434;2022-08-05T07:11:40;8.20;;;5.53;;
16662;SDS011;8445;51.270;9.434;2022-08-05T07:14:06;10.27;;;6.20;;
16662;SDS011;8445;51.270;9.434;2022-08-05T07:16:50;10.45;;;6.60;;
16662;SDS011;8445;51.270;9.434;2022-08-05T07:19:23;9.25;;;6.03;;
16662;SDS011;8445;51.270;9.434;2022-08-05T07:21:50;7.32;;;5.70;;
16662;SDS011;8445;51.270;9.434;2022-08-05T07:24:16;6.30;;;5.43;;
16662;SDS011;8445;51.270;9.434;2022-08-05T07:26:42;8.48;;;5.30;;
16662;SDS011;8445;51.270;9.434;2022-08-05T07:29:10;6.30;;;5.05;;
16662;SDS011;8445;51.270;9.434;2022-08-05T07:31:36;7.13;;;6.03;;
16662;SDS011;8445;51.270;9.434;2022-08-05T07:34:03;5.78;;;4.88;;
16662;SDS011;8445;51.270;9.434;2022-08-05T07:36:29;6.80;;;6.10;;
16662;SDS011;8445;51.270;9.434;2022-08-05T07:38:58;9.52;;;4.70;;
16662;SDS011;8445;51.270;9.434;2022-08-05T07:41:26;6.47;;;4.95;;
16662;SDS011;8445;51.270;9.434;2022-08-05T07:43:52;9.80;;;6.28;;
16662;SDS011;8445;51.270;9.434;2022-08-05T07:46:21;8.55;;;5.38;;
16662;SDS011;8445;51.270;9.434;2022-08-05T07:48:56;8.50;;;5.72;;
16662;SDS011;8445;51.270;9.434;2022-08-05T07:51:32;6.30;;;5.25;;
16662;SDS011;8445;51.270;9.434;2022-08-05T07:54:06;11.88;;;5.82;;
16662;SDS011;8445;51.270;9.434;2022-08-05T07:56:38;7.03;;;5.78;;
16662;SDS011;8445;51.270;9.434;2022-08-05T07:59:09;10.90;;;5.38;;
16662;SDS011;8445;51.270;9.434;2022-08-05T08:01:44;7.95;;;5.28;;
16662;SDS011;8445;51.270;9.434;2022-08-05T08:04:10;7.30;;;5.30;;
16662;SDS011;8445;51.270;9.434;2022-08-05T08:06:41;7.18;;;4.97;;
16662;SDS011;8445;51.270;9.434;2022-08-05T08:09:17;7.72;;;4.80;;
16662;SDS011;8445;51.270;9.434;2022-08-05T08:11:50;7.47;;;4.25;;
16662;SDS011;8445;51.270;9.434;2022-08-05T08:14:26;6.13;;;4.45;;
16662;SDS011;8445;51.270;9.434;2022-08-05T08:16:58;5.85;;;4.15;;
16662;SDS011;8445;51.270;9.434;2022-08-05T08:19:30;6.57;;;4.93;;
16662;SDS011;8445;51.270;9.434;2022-08-05T08:22:01;11.27;;;5.18;;
16662;SDS011;8445;51.270;9.434;2022-08-05T08:24:33;6.32;;;4.65;;
16662;SDS011;8445;51.270;9.434;2022-08-05T08:27:00;8.90;;;5.03;;
16662;SDS011;8445;51.270;9.434;2022-08-05T08:29:28;11.77;;;5.72;;
16662;SDS011;8445;51.270;9.434;2022-08-05T08:31:54;9.30;;;4.55;;
16662;SDS011;8445;51.270;9.434;2022-08-05T08:34:21;5.30;;;4.68;;
16662;SDS011;8445;51.270;9.434;2022-08-05T08:36:50;7.70;;;4.40;;
16662;SDS011;8445;51.270;9.434;2022-08-05T08:39:17;7.57;;;4.97;;
16662;SDS011;8445;51.270;9.434;2022-08-05T08:41:46;7.28;;;4.88;;
16662;SDS011;8445;51.270;9.434;2022-08-05T08:44:23;5.72;;;4.63;;
16662;SDS011;8445;51.270;9.434;2022-08-05T08:46:59;8.77;;;4.90;;
16662;SDS011;8445;51.270;9.434;2022-08-05T08:49:38;6.30;;;5.57;;
16662;SDS011;8445;51.270;9.434;2022-08-05T08:52:18;6.03;;;5.43;;
16662;SDS011;8445;51.270;9.434;2022-08-05T08:54:53;5.53;;;4.97;;
16662;SDS011;8445;51.270;9.434;2022-08-05T08:57:25;4.55;;;4.07;;
16662;SDS011;8445;51.270;9.434;2022-08-05T08:59:57;7.70;;;4.50;;
16662;SDS011;8445;51.270;9.434;2022-08-05T09:02:33;8.30;;;5.47;;
16662;SDS011;8445;51.270;9.434;2022-08-05T09:05:04;6.13;;;4.78;;
16662;SDS011;8445;51.270;9.434;2022-08-05T09:07:38;7.57;;;5.22;;
16662;SDS011;8445;51.270;9.434;2022-08-05T09:10:12;6.22;;;5.28;;
16662;SDS011;8445;51.270;9.434;2022-08-05T09:12:43;6.75;;;5.47;;
16662;SDS011;8445;51.270;9.434;2022-08-05T09:15:15;6.32;;;5.72;;
16662;SDS011;8445;51.270;9.434;2022-08-05T09:17:46;5.80;;;4.93;;
16662;SDS011;8445;51.270;9.434;2022-08-05T09:20:21;5.45;;;4.95;;
16662;SDS011;8445;51.270;9.434;2022-08-05T09:28:49;4.95;;;4.45;;
16662;SDS011;8445;51.270;9.434;2022-08-05T09:31:25;6.35;;;4.72;;
16662;SDS011;8445;51.270;9.434;2022-08-05T09:33:52;4.93;;;4.53;;
16662;SDS011;8445;51.270;9.434;2022-08-05T09:39:08;9.20;;;5.15;;
16662;SDS011;8445;51.270;9.434;2022-08-05T09:44:37;6.80;;;4.78;;
16662;SDS011;8445;51.270;9.434;2022-08-05T09:47:16;5.68;;;4.32;;
16662;SDS011;8445;51.270;9.434;2022-08-05T09:49:52;7.43;;;4.65;;
16662;SDS011;8445;51.270;9.434;2022-08-05T09:52:22;5.93;;;5.20;;
16662;SDS011;8445;51.270;9.434;2022-08-05T09:57:42;5.82;;;4.90;;
16662;SDS011;8445;51.270;9.434;2022-08-05T10:02:49;9.40;;;4.75;;
16662;SDS011;8445;51.270;9.434;2022-08-05T10:05:23;7.45;;;6.47;;
16662;SDS011;8445;51.270;9.434;2022-08-05T10:07:52;5.07;;;4.68;;
16662;SDS011;8445;51.270;9.434;2022-08-05T10:10:25;8.95;;;4.72;;
16662;SDS011;8445;51.270;9.434;2022-08-05T10:16:27;5.28;;;4.00;;
16662;SDS011;8445;51.270;9.434;2022-08-05T10:18:57;6.05;;;4.97;;
16662;SDS011;8445;51.270;9.434;2022-08-05T10:21:26;4.93;;;4.05;;
16662;SDS011;8445;51.270;9.434;2022-08-05T10:23:56;5.65;;;4.30;;
16662;SDS011;8445;51.270;9.434;2022-08-05T10:26:22;5.38;;;4.22;;
16662;SDS011;8445;51.270;9.434;2022-08-05T10:28:49;4.78;;;4.38;;
16662;SDS011;8445;51.270;9.434;2022-08-05T10:31:15;5.05;;;4.18;;
16662;SDS011;8445;51.270;9.434;2022-08-05T10:33:46;4.15;;;3.55;;
16662;SDS011;8445;51.270;9.434;2022-08-05T10:36:15;5.15;;;4.65;;
16662;SDS011;8445;51.270;9.434;2022-08-05T10:38:43;6.20;;;4.00;;
16662;SDS011;8445;51.270;9.434;2022-08-05T10:41:25;5.07;;;4.00;;
16662;SDS011;8445;51.270;9.434;2022-08-05T10:44:16;5.93;;;3.65;;
16662;SDS011;8445;51.270;9.434;2022-08-05T10:46:52;5.13;;;3.60;;
16662;SDS011;8445;51.270;9.434;2022-08-05T10:49:20;5.95;;;4.00;;
16662;SDS011;8445;51.270;9.434;2022-08-05T10:51:52;4.35;;;3.95;;
16662;SDS011;8445;51.270;9.434;2022-08-05T10:54:44;6.10;;;3.78;;
16662;SDS011;8445;51.270;9.434;2022-08-05T10:57:31;5.63;;;3.35;;
16662;SDS011;8445;51.270;9.434;2022-08-05T11:00:05;6.50;;;3.78;;
16662;SDS011;8445;51.270;9.434;2022-08-05T11:02:33;4.10;;;3.40;;
16662;SDS011;8445;51.270;9.434;2022-08-05T11:05:01;5.53;;;3.78;;
16662;SDS011;8445;51.270;9.434;2022-08-05T11:10:29;5.18;;;3.10;;
16662;SDS011;8445;51.270;9.434;2022-08-05T11:12:57;4.95;;;3.25;;
16662;SDS011;8445;51.270;9.434;2022-08-05T11:15:34;4.40;;;3.50;;
16662;SDS011;8445;51.270;9.434;2022-08-05T11:20:53;6.07;;;3.78;;
16662;SDS011;8445;51.270;9.434;2022-08-05T11:23:30;4.22;;;3.53;;
16662;SDS011;8445;51.270;9.434;2022-08-05T11:26:25;6.25;;;3.10;;
16662;SDS011;8445;51.270;9.434;2022-08-05T11:28:56;4.22;;;3.55;;
16662;SDS011;8445;51.270;9.434;2022-08-05T11:31:25;9.93;;;7.45;;
16662;SDS011;8445;51.270;9.434;2022-08-05T11:33:56;9.50;;;7.97;;
16662;SDS011;8445;51.270;9.434;2022-08-05T11:37:14;9.48;;;8.13;;
16662;SDS011;8445;51.270;9.434;2022-08-05T11:42:21;11.13;;;9.82;;
16662;SDS011;8445;51.270;9.434;2022-08-05T11:44:49;14.20;;;10.50;;
16662;SDS011;8445;51.270;9.434;2022-08-05T11:47:19;13.07;;;11.77;;
16662;SDS011;8445;51.270;9.434;2022-08-05T11:49:54;13.15;;;11.63;;
16662;SDS011;8445;51.270;9.434;2022-08-05T11:52:27;13.30;;;11.88;;
16662;SDS011;8445;51.270;9.434;2022-08-05T11:54:53;16.30;;;12.38;;
16662;SDS011;8445;51.270;9.434;2022-08-05T11:57:20;14.82;;;12.68;;
16662;SDS011;8445;51.270;9.434;2022-08-05T11:59:55;13.43;;;11.75;;
16662;SDS011;8445;51.270;9.434;2022-08-05T12:02:23;17.83;;;11.00;;
16662;SDS011;8445;51.270;9.434;2022-08-05T12:04:52;13.02;;;11.02;;
16662;SDS011;8445;51.270;9.434;2022-08-05T12:07:18;12.10;;;10.80;;
16662;SDS011;8445;51.270;9.434;2022-08-05T12:09:48;10.50;;;9.07;;
16662;SDS011;8445;51.270;9.434;2022-08-05T12:12:25;12.32;;;9.70;;
16662;SDS011;8445;51.270;9.434;2022-08-05T12:14:57;12.77;;;9.10;;
16662;SDS011;8445;51.270;9.434;2022-08-05T12:17:23;10.35;;;8.90;;
16662;SDS011;8445;51.270;9.434;2022-08-05T12:19:52;9.70;;;8.38;;
16662;SDS011;8445;51.270;9.434;2022-08-05T12:22:26;9.48;;;7.15;;
16662;SDS011;8445;51.270;9.434;2022-08-05T12:24:57;8.60;;;7.72;;
16662;SDS011;8445;51.270;9.434;2022-08-05T12:27:23;7.85;;;7.05;;
16662;SDS011;8445;51.270;9.434;2022-08-05T12:30:07;6.88;;;5.97;;
16662;SDS011;8445;51.270;9.434;2022-08-05T12:32:45;6.18;;;5.43;;
16662;SDS011;8445;51.270;9.434;2022-08-05T12:35:21;7.40;;;6.32;;
16662;SDS011;8445;51.270;9.434;2022-08-05T12:37:51;7.05;;;6.05;;
16662;SDS011;8445;51.270;9.434;2022-08-05T12:40:26;9.52;;;6.35;;
16662;SDS011;8445;51.270;9.434;2022-08-05T12:43:01;5.80;;;5.10;;
16662;SDS011;8445;51.270;9.434;2022-08-05T12:45:35;7.78;;;5.68;;
16662;SDS011;8445;51.270;9.434;2022-08-05T12:48:15;6.20;;;5.40;;
16662;SDS011;8445;51.270;9.434;2022-08-05T12:53:43;5.95;;;3.70;;
16662;SDS011;8445;51.270;9.434;2022-08-05T12:56:15;3.47;;;3.17;;
16662;SDS011;8445;51.270;9.434;2022-08-05T13:01:58;3.10;;;2.67;;
16662;SDS011;8445;51.270;9.434;2022-08-05T13:04:35;2.83;;;2.42;;
16662;SDS011;8445;51.270;9.434;2022-08-05T13:07:11;2.55;;;2.28;;
16662;SDS011;8445;51.270;9.434;2022-08-05T13:09:46;3.80;;;1.85;;
16662;SDS011;8445;51.270;9.434;2022-08-05T13:12:18;1.80;;;1.70;;
16662;SDS011;8445;51.270;9.434;2022-08-05T13:14:48;2.20;;;2.03;;
16662;SDS011;8445;51.270;9.434;2022-08-05T13:17:27;4.13;;;2.60;;
16662;SDS011;8445;51.270;9.434;2022-08-05T13:22:51;5.28;;;2.20;;
16662;SDS011;8445;51.270;9.434;2022-08-05T13:25:18;6.55;;;2.20;;
16662;SDS011;8445;51.270;9.434;2022-08-05T13:27:46;2.58;;;2.00;;
16662;SDS011;8445;51.270;9.434;2022-08-05T13:30:13;3.00;;;1.90;;
16662;SDS011;8445;51.270;9.434;2022-08-05T13:32:41;3.65;;;1.90;;
16662;SDS011;8445;51.270;9.434;2022-08-05T13:35:12;3.55;;;1.85;;
16662;SDS011;8445;51.270;9.434;2022-08-05T13:37:39;5.28;;;2.10;;
16662;SDS011;8445;51.270;9.434;2022-08-05T13:40:07;2.95;;;2.00;;
16662;SDS011;8445;51.270;9.434;2022-08-05T13:42:34;3.67;;;2.20;;
16662;SDS011;8445;51.270;9.434;2022-08-05T13:45:00;4.60;;;2.38;;
16662;SDS011;8445;51.270;9.434;2022-08-05T13:47:27;5.07;;;2.30;;
16662;SDS011;8445;51.270;9.434;2022-08-05T13:49:54;5.90;;;2.20;;
16662;SDS011;8445;51.270;9.434;2022-08-05T13:52:21;4.57;;;2.13;;
16662;SDS011;8445;51.270;9.434;2022-08-05T13:54:53;2.80;;;1.90;;
16662;SDS011;8445;51.270;9.434;2022-08-05T13:57:20;2.67;;;2.03;;
16662;SDS011;8445;51.270;9.434;2022-08-05T13:59:47;2.13;;;1.80;;
16662;SDS011;8445;51.270;9.434;2022-08-05T14:02:14;2.63;;;1.90;;
16662;SDS011;8445;51.270;9.434;2022-08-05T14:04:44;3.03;;;2.10;;
16662;SDS011;8445;51.270;9.434;2022-08-05T14:07:31;3.97;;;2.20;;
16662;SDS011;8445;51.270;9.434;2022-08-05T14:10:00;2.58;;;1.98;;
16662;SDS011;8445;51.270;9.434;2022-08-05T14:12:27;5.18;;;1.60;;
16662;SDS011;8445;51.270;9.434;2022-08-05T14:14:53;3.95;;;1.77;;
16662;SDS011;8445;51.270;9.434;2022-08-05T14:17:24;1.92;;;1.50;;
16662;SDS011;8445;51.270;9.434;2022-08-05T14:19:55;1.45;;;1.23;;
16662;SDS011;8445;51.270;9.434;2022-08-05T14:22:20;4.45;;;1.60;;
16662;SDS011;8445;51.270;9.434;2022-08-05T14:24:52;4.03;;;1.67;;
16662;SDS011;8445;51.270;9.434;2022-08-05T14:27:17;1.60;;;1.25;;
16662;SDS011;8445;51.270;9.434;2022-08-05T14:29:43;1.27;;;1.00;;
16662;SDS011;8445;51.270;9.434;2022-08-05T14:32:09;2.63;;;1.30;;
16662;SDS011;8445;51.270;9.434;2022-08-05T14:34:35;2.47;;;1.45;;
16662;SDS011;8445;51.270;9.434;2022-08-05T14:37:02;3.33;;;1.30;;
16662;SDS011;8445;51.270;9.434;2022-08-05T14:39:29;1.98;;;1.27;;
16662;SDS011;8445;51.270;9.434;2022-08-05T14:41:55;3.47;;;1.50;;
16662;SDS011;8445;51.270;9.434;2022-08-05T14:44:21;2.17;;;1.38;;
16662;SDS011;8445;51.270;9.434;2022-08-05T14:46:47;2.08;;;1.40;;
16662;SDS011;8445;51.270;9.434;2022-08-05T14:49:13;1.65;;;1.42;;
16662;SDS011;8445;51.270;9.434;2022-08-05T14:51:39;1.77;;;1.60;;
16662;SDS011;8445;51.270;9.434;2022-08-05T14:54:05;3.80;;;1.40;;
16662;SDS011;8445;51.270;9.434;2022-08-05T14:56:32;1.98;;;1.40;;
16662;SDS011;8445;51.270;9.434;2022-08-05T14:59:01;5.53;;;1.63;;
16662;SDS011;8445;51.270;9.434;2022-08-05T15:01:27;4.55;;;1.77;;
16662;SDS011;8445;51.270;9.434;2022-08-05T15:03:53;1.90;;;1.60;;
16662;SDS011;8445;51.270;9.434;2022-08-05T15:06:24;3.20;;;1.58;;
16662;SDS011;8445;51.270;9.434;2022-08-05T15:08:55;2.90;;;1.70;;
16662;SDS011;8445;51.270;9.434;2022-08-05T15:11:31;6.45;;;2.15;;
16662;SDS011;8445;51.270;9.434;2022-08-05T15:14:00;1.48;;;1.38;;
16662;SDS011;8445;51.270;9.434;2022-08-05T15:16:31;5.15;;;1.60;;
16662;SDS011;8445;51.270;9.434;2022-08-05T15:19:02;3.20;;;1.92;;
16662;SDS011;8445;51.270;9.434;2022-08-05T15:21:33;2.05;;;1.60;;
16662;SDS011;8445;51.270;9.434;2022-08-05T15:24:14;4.35;;;1.30;;
16662;SDS011;8445;51.270;9.434;2022-08-05T15:26:44;3.97;;;1.50;;
16662;SDS011;8445;51.270;9.434;2022-08-05T15:29:16;4.35;;;1.13;;
16662;SDS011;8445;51.270;9.434;2022-08-05T15:31:46;2.72;;;1.73;;
16662;SDS011;8445;51.270;9.434;2022-08-05T15:34:19;4.20;;;1.83;;
16662;SDS011;8445;51.270;9.434;2022-08-05T15:36:51;4.65;;;1.60;;
16662;SDS011;8445;51.270;9.434;2022-08-05T15:39:21;4.40;;;1.50;;
16662;SDS011;8445;51.270;9.434;2022-08-05T15:41:52;2.50;;;1.48;;
16662;SDS011;8445;51.270;9.434;2022-08-05T15:44:23;2.13;;;1.42;;
16662;SDS011;8445;51.270;9.434;2022-08-05T15:46:48;3.20;;;1.40;;
16662;SDS011;8445;51.270;9.434;2022-08-05T15:49:14;2.33;;;1.23;;
16662;SDS011;8445;51.270;9.434;2022-08-05T15:51:40;4.07;;;1.27;;
16662;SDS011;8445;51.270;9.434;2022-08-05T15:54:06;2.35;;;1.20;;
16662;SDS011;8445;51.270;9.434;2022-08-05T15:56:32;2.17;;;1.23;;
16662;SDS011;8445;51.270;9.434;2022-08-05T15:58:58;2.38;;;1.20;;
16662;SDS011;8445;51.270;9.434;2022-08-05T16:01:23;5.95;;;1.30;;
16662;SDS011;8445;51.270;9.434;2022-08-05T16:03:49;3.17;;;1.20;;
16662;SDS011;8445;51.270;9.434;2022-08-05T16:06:15;3.33;;;1.30;;
16662;SDS011;8445;51.270;9.434;2022-08-05T16:08:42;3.30;;;1.40;;
16662;SDS011;8445;51.270;9.434;2022-08-05T16:11:08;3.60;;;1.25;;
16662;SDS011;8445;51.270;9.434;2022-08-05T16:13:35;1.27;;;1.05;;